Monument, Kansas
Current Conditions -  °F | °C
As of 4:55 AM on Thursday 23 Oct 2014 (Local Time) from KCBK Reporting Station
Clear Clear  
Wind Chill: 36°   Ceiling: Unl
Heat Index: 41°   Visibility: 7mi
Dew Point: 41°   Wind: 7mph
Humidity: 100%   Direction: 280°W
Pressure: 30.09"   Gusts: NA
Location:  39.1°N, 101.01°W
Report Text: KCBK 230955Z AUTO 28006KT 7SM CLR 05/05 A3009 RMK AO2
Loading
Personal Weather Stations






























Interactive Weather Map
Tropical Storm Tracking
New forecast layout! Learn more

10-Day Weather Forecast

Advertisements
Track Severe Weather on mobile